Time,TemperatureF,DewpointF,PressureIn,WindDirection,WindDirectionDegrees,WindSpeedMPH,WindSpeedGustMPH,Humidity,HourlyPrecipIn,Conditions,Clouds,dailyrainin,SoftwareType,DateUTC
2013-04-09 00:00:00,62.8,57.9,29.84,ESE,112,0.0,4.0,84,0.00,,---,0.00,VWS V14.01,2013-04-09 05:00:00,
2013-04-09 00:30:00,61.8,57.6,29.83,ESE,112,0.0,1.0,86,0.00,,---,0.00,VWS V14.01,2013-04-09 05:30:00,
2013-04-09 01:00:00,61.2,57.3,29.83,ESE,112,0.0,0.0,87,0.00,,---,0.00,VWS V14.01,2013-04-09 06:00:00,
2013-04-09 01:30:00,62.3,57.7,29.83,ESE,112,0.0,2.0,85,0.00,,---,0.00,VWS V14.01,2013-04-09 06:30:00,
2013-04-09 02:00:00,63.1,57.2,29.82,ESE,112,1.0,2.0,81,0.00,,---,0.00,VWS V14.01,2013-04-09 07:00:00,
2013-04-09 02:30:00,62.3,56.7,29.82,ESE,112,1.0,3.0,82,0.00,,---,0.00,VWS V14.01,2013-04-09 07:30:00,
2013-04-09 03:00:00,62.7,56.8,29.82,ESE,112,2.0,8.0,81,0.00,,---,0.00,VWS V14.01,2013-04-09 08:00:00,
2013-04-09 03:30:00,62.8,56.5,29.81,SE,135,2.0,7.0,80,0.00,,---,0.00,VWS V14.01,2013-04-09 08:30:00,
2013-04-09 04:00:00,63.0,56.7,29.83,ESE,112,3.0,7.0,80,0.00,,---,0.00,VWS V14.01,2013-04-09 09:00:00,
2013-04-09 04:30:00,62.1,56.5,29.84,ESE,112,3.0,4.0,82,0.00,,---,0.00,VWS V14.01,2013-04-09 09:30:00,
2013-04-09 05:00:00,61.6,56.4,29.84,ESE,112,3.0,5.0,83,0.00,,---,0.00,VWS V14.01,2013-04-09 10:00:00,
2013-04-09 05:30:00,59.6,55.7,29.84,ESE,112,2.0,4.0,87,0.00,,---,0.00,VWS V14.01,2013-04-09 10:30:00,
2013-04-09 06:00:00,59.3,55.8,29.85,ESE,112,2.0,3.0,88,0.00,,---,0.00,VWS V14.01,2013-04-09 11:00:00,
2013-04-09 06:30:00,60.5,57.2,29.86,ESE,112,2.0,5.0,89,0.00,,---,0.00,VWS V14.01,2013-04-09 11:30:00,
2013-04-09 07:00:00,60.5,57.2,29.88,East,90,1.0,3.0,89,0.00,,---,0.00,VWS V14.01,2013-04-09 12:00:00,
2013-04-09 07:30:00,62.3,59.0,29.89,East,90,1.0,7.0,89,0.00,,---,0.00,VWS V14.01,2013-04-09 12:30:00,
2013-04-09 08:00:00,64.5,60.2,29.89,ESE,112,4.0,14.0,86,0.00,,---,0.00,VWS V14.01,2013-04-09 13:00:00,
2013-04-09 08:30:00,65.7,60.7,29.90,SE,135,8.0,15.0,84,0.00,,---,0.00,VWS V14.01,2013-04-09 13:30:00,
2013-04-09 09:00:00,65.9,60.9,29.90,ESE,112,8.0,15.0,84,0.00,,---,0.00,VWS V14.01,2013-04-09 14:00:00,
2013-04-09 09:30:00,66.8,61.8,29.91,ESE,112,8.0,14.0,84,0.00,,---,0.00,VWS V14.01,2013-04-09 14:30:00,
2013-04-09 10:00:00,69.9,63.1,29.91,SE,135,9.0,18.0,79,0.00,,---,0.00,VWS V14.01,2013-04-09 15:00:00,
2013-04-09 10:30:00,71.4,63.8,29.91,SE,135,11.0,24.0,77,0.00,,---,0.00,VWS V14.01,2013-04-09 15:30:00,
2013-04-09 11:00:00,72.1,64.1,29.91,SE,135,9.0,26.0,76,0.00,,---,0.00,VWS V14.01,2013-04-09 16:00:00,
2013-04-09 11:30:00,74.3,64.7,29.90,SE,135,11.0,21.0,72,0.00,,---,0.00,VWS V14.01,2013-04-09 16:30:00,
2013-04-09 12:00:00,76.0,64.7,29.88,SE,135,11.0,31.0,68,0.00,,---,0.00,VWS V14.01,2013-04-09 17:00:00,
2013-04-09 12:30:00,75.8,65.3,29.88,SE,135,10.0,32.0,70,0.00,,---,0.00,VWS V14.01,2013-04-09 17:30:00,
2013-04-09 13:00:00,76.1,64.8,29.87,SE,135,11.0,26.0,68,0.00,,---,0.00,VWS V14.01,2013-04-09 18:00:00,
2013-04-09 13:30:00,77.6,65.3,29.86,SE,135,12.0,25.0,66,0.00,,---,0.00,VWS V14.01,2013-04-09 18:30:00,
2013-04-09 14:00:00,77.9,64.3,29.84,SE,135,14.0,28.0,63,0.00,,---,0.00,VWS V14.01,2013-04-09 19:00:00,
2013-04-09 14:30:00,78.5,64.4,29.84,SE,135,14.0,30.0,62,0.00,,---,0.00,VWS V14.01,2013-04-09 19:30:00,
2013-04-09 15:00:00,80.3,64.2,29.83,SE,135,12.0,27.0,58,0.00,,---,0.00,VWS V14.01,2013-04-09 20:00:00,
2013-04-09 15:30:00,79.3,63.7,29.82,SE,135,14.0,28.0,59,0.00,,---,0.00,VWS V14.01,2013-04-09 20:30:00,
2013-04-09 16:00:00,79.3,63.3,29.81,SE,135,12.0,25.0,58,0.00,,---,0.00,VWS V14.01,2013-04-09 21:00:00,
2013-04-09 16:30:00,79.8,62.7,29.81,SE,135,13.0,27.0,56,0.00,,---,0.00,VWS V14.01,2013-04-09 21:30:00,
2013-04-09 17:00:00,80.3,63.2,29.81,SE,135,11.0,24.0,56,0.00,,---,0.00,VWS V14.01,2013-04-09 22:00:00,
2013-04-09 17:30:00,80.7,63.0,29.80,SE,135,9.0,19.0,55,0.00,,---,0.00,VWS V14.01,2013-04-09 22:30:00,
2013-04-09 18:00:00,79.7,63.6,29.80,SE,135,10.0,21.0,58,0.00,,---,0.00,VWS V14.01,2013-04-09 23:00:00,
2013-04-09 18:30:00,79.2,64.1,29.80,SE,135,9.0,22.0,60,0.00,,---,0.00,VWS V14.01,2013-04-09 23:30:00,
2013-04-09 19:00:00,79.1,63.6,29.80,SE,135,8.0,16.0,59,0.00,,---,0.00,VWS V14.01,2013-04-10 00:00:00,
2013-04-09 19:30:00,77.9,63.8,29.80,SE,135,8.0,14.0,62,0.00,,---,0.00,VWS V14.01,2013-04-10 00:30:00,
2013-04-09 20:00:00,76.7,65.3,29.81,SE,135,7.0,16.0,68,0.00,,---,0.00,VWS V14.01,2013-04-10 01:00:00,
2013-04-09 20:30:00,75.6,65.1,29.81,SE,135,6.0,13.0,70,0.00,,---,0.00,VWS V14.01,2013-04-10 01:30:00,
2013-04-09 21:00:00,74.7,65.1,29.82,ESE,112,8.0,14.0,72,0.00,,---,0.00,VWS V14.01,2013-04-10 02:00:00,
2013-04-09 21:30:00,73.8,65.0,29.83,SE,135,8.0,15.0,74,0.00,,---,0.00,VWS V14.01,2013-04-10 02:30:00,
2013-04-09 22:00:00,72.9,64.9,29.82,SE,135,7.0,14.0,76,0.00,,---,0.00,VWS V14.01,2013-04-10 03:00:00,
2013-04-09 22:30:00,72.2,65.0,29.80,ESE,112,7.0,14.0,78,0.00,,---,0.00,VWS V14.01,2013-04-10 03:30:00,
2013-04-09 23:00:00,71.7,64.8,29.80,SE,135,7.0,14.0,79,0.00,,---,0.00,VWS V14.01,2013-04-10 04:00:00,
2013-04-09 23:30:00,71.6,65.1,29.79,SE,135,9.0,17.0,80,0.00,,---,0.00,VWS V14.01,2013-04-10 04:30:00,